createdAt,value
2019-02-20T00:00:36.343Z,36.68
2019-02-20T00:03:09.038Z,22.32
2019-02-20T00:05:41.154Z,25.43
2019-02-20T00:08:12.414Z,40.23
2019-02-20T00:10:44.530Z,29.40
2019-02-20T00:13:15.648Z,26.42
2019-02-20T00:15:46.877Z,36.00
2019-02-20T00:18:21.580Z,31.93
2019-02-20T00:20:52.853Z,38.25
2019-02-20T00:23:25.364Z,32.28
2019-02-20T00:25:56.667Z,31.62
2019-02-20T00:28:27.814Z,32.33
2019-02-20T00:30:59.039Z,48.48
2019-02-20T00:33:30.244Z,28.87
2019-02-20T00:36:02.937Z,33.85
2019-02-20T00:38:34.040Z,35.70
2019-02-20T00:41:05.248Z,29.87
2019-02-20T00:43:36.382Z,29.60
2019-02-20T00:46:17.948Z,37.75
2019-02-20T00:48:56.405Z,53.25
2019-02-20T00:51:38.328Z,32.17
2019-02-20T00:54:09.688Z,39.75
2019-02-20T00:56:42.521Z,49.23
2019-02-20T00:59:13.552Z,32.98
2019-02-20T01:01:44.626Z,29.90
2019-02-20T01:04:15.667Z,41.18
2019-02-20T01:06:46.760Z,34.13
2019-02-20T01:09:17.894Z,33.88
2019-02-20T01:11:48.973Z,40.90
2019-02-20T01:14:20.063Z,43.92
2019-02-20T01:16:51.103Z,28.38
2019-02-20T01:19:22.113Z,31.87
2019-02-20T01:21:53.214Z,30.30
2019-02-20T01:24:24.291Z,22.93
2019-02-20T01:26:55.329Z,27.85
2019-02-20T01:29:26.400Z,26.27
2019-02-20T01:31:57.448Z,28.20
2019-02-20T01:34:28.526Z,25.65
2019-02-20T01:36:59.569Z,18.50
2019-02-20T01:39:30.640Z,13.78
2019-02-20T01:42:01.711Z,16.23
2019-02-20T01:44:32.836Z,13.78
2019-02-20T01:47:03.874Z,14.63
2019-02-20T01:49:34.943Z,17.90
2019-02-20T01:52:05.983Z,13.00
2019-02-20T01:54:37.128Z,20.75
2019-02-20T01:57:08.223Z,17.00
2019-02-20T01:59:39.371Z,16.55
2019-02-20T02:02:11.423Z,20.82
2019-02-20T02:04:42.456Z,21.45
2019-02-20T02:07:13.520Z,33.02
2019-02-20T02:09:44.560Z,22.75
2019-02-20T02:12:15.643Z,24.43
2019-02-20T02:14:46.690Z,26.77
2019-02-20T02:17:18.171Z,26.27
2019-02-20T02:19:49.207Z,24.18
2019-02-20T02:22:20.310Z,27.50
2019-02-20T02:24:52.355Z,18.17
2019-02-20T02:27:23.419Z,23.70
2019-02-20T02:29:54.457Z,17.80
2019-02-20T02:32:25.528Z,23.00
2019-02-20T02:34:56.569Z,20.02
2019-02-20T02:37:27.648Z,23.90
2019-02-20T02:39:59.685Z,17.98
2019-02-20T02:42:30.763Z,18.07
2019-02-20T02:45:01.824Z,20.37
2019-02-20T02:47:33.971Z,19.95
2019-02-20T02:50:06.666Z,15.65
2019-02-20T02:52:37.735Z,15.40
2019-02-20T02:55:08.776Z,18.87
2019-02-20T02:57:39.846Z,16.57
2019-02-20T03:00:12.013Z,17.85
2019-02-20T03:02:43.093Z,17.00
2019-02-20T03:05:14.152Z,18.25
2019-02-20T03:07:45.190Z,19.23
2019-02-20T03:10:16.270Z,18.75
2019-02-20T03:12:47.448Z,15.85
2019-02-20T03:15:18.520Z,20.95
2019-02-20T03:17:49.561Z,16.42
2019-02-20T03:20:20.635Z,21.85
2019-02-20T03:22:51.681Z,18.52
2019-02-20T03:25:22.752Z,25.17
2019-02-20T03:27:53.789Z,20.80
2019-02-20T03:30:24.867Z,18.25
2019-02-20T03:32:55.981Z,18.95
2019-02-20T03:35:27.059Z,22.85
2019-02-20T03:37:58.087Z,13.95
2019-02-20T03:40:29.158Z,14.40
2019-02-20T03:43:00.219Z,13.48
2019-02-20T03:45:31.349Z,16.62
2019-02-20T03:48:02.458Z,25.23
2019-02-20T03:50:33.539Z,17.62
2019-02-20T03:53:04.614Z,17.17
2019-02-20T03:55:35.655Z,10.45
2019-02-20T03:58:06.710Z,9.70
2019-02-20T04:00:37.755Z,21.57
2019-02-20T04:03:08.828Z,15.25
2019-02-20T04:05:39.893Z,10.35
2019-02-20T04:08:10.996Z,15.80
2019-02-20T04:10:42.042Z,17.30
2019-02-20T04:13:13.113Z,16.40
2019-02-20T04:15:44.153Z,18.65
2019-02-20T04:18:15.219Z,23.65
2019-02-20T04:20:46.261Z,19.55
2019-02-20T04:23:17.341Z,13.13
2019-02-20T04:25:48.382Z,14.47
2019-02-20T04:28:19.455Z,15.05
2019-02-20T04:30:50.493Z,17.75
2019-02-20T04:33:21.588Z,16.93
2019-02-20T04:35:53.076Z,16.80
2019-02-20T04:38:24.874Z,17.42
2019-02-20T04:40:55.924Z,16.37
2019-02-20T04:43:26.991Z,17.32
2019-02-20T04:45:58.063Z,28.10
2019-02-20T04:48:29.137Z,26.00
2019-02-20T04:51:00.212Z,17.07
2019-02-20T04:53:31.317Z,23.73
2019-02-20T04:56:02.390Z,25.52
2019-02-20T04:58:33.427Z,21.90
2019-02-20T05:01:04.552Z,21.35
2019-02-20T05:03:35.592Z,20.97
2019-02-20T05:06:06.666Z,21.10
2019-02-20T05:08:37.722Z,25.72
2019-02-20T05:11:08.796Z,32.83
2019-02-20T05:13:39.837Z,33.75
2019-02-20T05:16:10.911Z,40.12
2019-02-20T05:18:41.950Z,30.37
2019-02-20T05:21:13.029Z,27.42
2019-02-20T05:23:44.073Z,34.10
2019-02-20T05:26:15.135Z,32.98
2019-02-20T05:28:46.171Z,31.68
2019-02-20T05:31:17.244Z,34.15
2019-02-20T05:33:49.279Z,23.77
2019-02-20T05:36:20.350Z,31.73
2019-02-20T05:38:51.504Z,33.18
2019-02-20T05:41:22.550Z,34.98
2019-02-20T05:43:53.624Z,26.82
2019-02-20T05:46:24.667Z,30.88
2019-02-20T05:48:55.743Z,21.97
2019-02-20T05:51:26.788Z,24.82
2019-02-20T05:53:57.853Z,21.20
2019-02-20T05:56:28.895Z,23.65
2019-02-20T05:58:59.961Z,24.55
2019-02-20T06:01:31.015Z,24.70
2019-02-20T06:04:02.089Z,23.12
2019-02-20T06:06:33.132Z,27.87
2019-02-20T06:09:05.106Z,21.97
2019-02-20T06:11:36.441Z,31.90
2019-02-20T06:14:08.516Z,22.07
2019-02-20T06:16:39.573Z,21.10
2019-02-20T06:19:10.650Z,20.10
2019-02-20T06:21:41.684Z,17.82
2019-02-20T06:24:12.759Z,19.50
2019-02-20T06:26:43.804Z,19.40
2019-02-20T06:29:14.875Z,26.42
2019-02-20T06:31:45.957Z,27.20
2019-02-20T06:34:16.990Z,25.15
2019-02-20T06:36:48.068Z,26.27
2019-02-20T06:39:19.122Z,28.00
2019-02-20T06:41:50.257Z,29.63
2019-02-20T06:44:21.338Z,27.82
2019-02-20T06:46:52.410Z,30.52
2019-02-20T06:49:23.443Z,32.33
2019-02-20T06:51:54.442Z,37.20
2019-02-20T06:54:25.483Z,38.00
2019-02-20T06:56:56.545Z,27.67
2019-02-20T06:59:27.576Z,29.30
2019-02-20T07:01:58.645Z,30.40
2019-02-20T07:04:29.685Z,33.20
2019-02-20T07:07:05.269Z,28.83
2019-02-20T07:09:58.768Z,34.43
2019-02-20T07:12:42.929Z,33.48
2019-02-20T07:15:36.049Z,28.98
2019-02-20T07:18:27.108Z,26.68
2019-02-20T07:21:32.297Z,41.95
2019-02-20T07:24:10.445Z,24.52
2019-02-20T07:27:06.404Z,24.98
2019-02-20T07:29:46.886Z,27.50
2019-02-20T07:32:18.939Z,25.25
2019-02-20T07:34:50.121Z,31.48
2019-02-20T07:37:21.187Z,28.12
2019-02-20T07:39:52.277Z,24.45
2019-02-20T07:42:23.322Z,27.15
2019-02-20T07:44:54.385Z,29.45
2019-02-20T07:47:25.447Z,31.40
2019-02-20T07:49:56.514Z,30.32
2019-02-20T07:52:27.570Z,33.28
2019-02-20T07:54:59.608Z,25.17
2019-02-20T07:57:30.669Z,33.35
2019-02-20T08:00:01.716Z,25.08
2019-02-20T08:02:34.646Z,35.50
2019-02-20T08:05:06.382Z,30.50
2019-02-20T08:07:37.447Z,27.45
2019-02-20T08:10:11.547Z,31.27
2019-02-20T08:12:42.608Z,30.05
2019-02-20T08:15:13.646Z,28.10
2019-02-20T08:17:44.713Z,24.65
2019-02-20T08:20:15.750Z,26.93
2019-02-20T08:22:46.820Z,33.38
2019-02-20T08:25:22.962Z,20.62
2019-02-20T08:27:50.682Z,24.92
2019-02-20T08:30:21.720Z,26.42
2019-02-20T08:32:52.783Z,33.70
2019-02-20T08:35:23.829Z,24.15
2019-02-20T08:37:54.888Z,25.12
2019-02-20T08:40:25.923Z,22.73
2019-02-20T08:42:57.002Z,24.07
2019-02-20T08:45:28.061Z,24.55
2019-02-20T08:47:59.521Z,23.40
2019-02-20T08:50:30.593Z,26.73
2019-02-20T08:53:01.670Z,25.50
2019-02-20T08:55:32.739Z,25.05
2019-02-20T08:58:03.894Z,20.55
2019-02-20T09:00:35.024Z,27.25
2019-02-20T09:03:06.059Z,22.37
2019-02-20T09:05:37.123Z,24.98
2019-02-20T09:08:08.155Z,24.72
2019-02-20T09:10:39.310Z,25.02
2019-02-20T09:13:10.344Z,19.60
2019-02-20T09:15:41.412Z,23.22
2019-02-20T09:18:12.443Z,34.75
2019-02-20T09:20:43.509Z,34.05
2019-02-20T09:23:14.546Z,32.25
2019-02-20T09:25:45.618Z,34.98
2019-02-20T09:28:16.649Z,36.33
2019-02-20T09:30:47.715Z,46.23
2019-02-20T09:33:18.777Z,40.35
2019-02-20T09:35:49.818Z,29.90
2019-02-20T09:38:20.878Z,54.88
2019-02-20T09:40:51.916Z,36.75
2019-02-20T09:43:23.082Z,36.03
2019-02-20T09:45:54.112Z,40.00
2019-02-20T09:48:26.720Z,29.37
2019-02-20T09:50:57.797Z,50.92
2019-02-20T09:53:28.856Z,39.10
2019-02-20T09:56:00.897Z,39.20
2019-02-20T09:58:31.968Z,35.55
2019-02-20T10:01:03.146Z,36.13
2019-02-20T10:03:34.418Z,38.23
2019-02-20T10:06:05.505Z,46.80
2019-02-20T10:08:36.587Z,41.55
2019-02-20T10:11:07.637Z,42.60
2019-02-20T10:13:38.797Z,45.08
2019-02-20T10:16:09.906Z,39.90
2019-02-20T10:18:41.051Z,42.43
2019-02-20T10:21:12.135Z,42.23
2019-02-20T10:23:45.203Z,46.48
2019-02-20T10:26:16.099Z,45.38
2019-02-20T10:28:47.251Z,44.77
2019-02-20T10:31:18.342Z,42.10
2019-02-20T10:33:49.383Z,49.27
2019-02-20T10:36:20.464Z,72.40
2019-02-20T10:38:51.504Z,41.65
2019-02-20T10:41:22.583Z,56.20
2019-02-20T10:43:53.628Z,35.55
2019-02-20T10:46:24.700Z,46.02
2019-02-20T10:48:55.762Z,44.27
2019-02-20T10:51:28.455Z,43.80
2019-02-20T10:54:00.516Z,45.28
2019-02-20T10:56:31.631Z,44.67
2019-02-20T10:59:02.711Z,43.45
2019-02-20T11:01:33.788Z,40.38
2019-02-20T11:04:04.836Z,39.15
2019-02-20T11:06:35.990Z,43.10
2019-02-20T11:09:08.229Z,36.93
2019-02-20T11:11:39.377Z,34.33
2019-02-20T11:14:10.446Z,31.97
2019-02-20T11:16:41.529Z,36.10
2019-02-20T11:19:12.628Z,36.50
2019-02-20T11:21:43.972Z,42.43
2019-02-20T11:24:15.053Z,37.95
2019-02-20T11:26:53.186Z,40.33
2019-02-20T11:29:18.930Z,37.85
2019-02-20T11:31:50.007Z,32.03
2019-02-20T11:34:21.205Z,43.00
2019-02-20T11:36:52.264Z,42.17
2019-02-20T11:39:23.346Z,32.03
2019-02-20T11:41:54.397Z,39.78
2019-02-20T11:44:25.469Z,32.38
2019-02-20T11:46:56.589Z,36.90
2019-02-20T11:49:27.672Z,34.58
2019-02-20T11:51:58.721Z,40.43
2019-02-20T11:54:29.797Z,34.18
2019-02-20T11:57:00.849Z,39.20
2019-02-20T11:59:31.936Z,40.83
2019-02-20T12:02:03.048Z,34.08
2019-02-20T12:04:34.126Z,33.88
2019-02-20T12:07:05.176Z,21.60
2019-02-20T12:09:36.259Z,32.75
2019-02-20T12:12:07.349Z,26.80
2019-02-20T12:14:38.400Z,26.02
2019-02-20T12:17:09.475Z,29.63
2019-02-20T12:19:40.521Z,30.77
2019-02-20T12:22:11.605Z,35.13
2019-02-20T12:24:42.652Z,31.02
2019-02-20T12:27:13.734Z,27.45
2019-02-20T12:29:44.784Z,31.87
2019-02-20T12:32:15.885Z,29.70
2019-02-20T12:34:46.938Z,36.53
2019-02-20T12:37:18.042Z,30.55
2019-02-20T12:39:50.181Z,32.90
2019-02-20T12:42:21.259Z,33.42
2019-02-20T12:44:52.302Z,42.00
2019-02-20T12:47:23.381Z,35.17
2019-02-20T12:49:54.430Z,32.73
2019-02-20T12:52:26.551Z,27.05
2019-02-20T12:54:57.629Z,41.10
2019-02-20T12:57:28.635Z,26.17
2019-02-20T12:59:59.715Z,38.65
2019-02-20T13:02:30.762Z,30.25
2019-02-20T13:05:01.841Z,30.97
2019-02-20T13:07:33.238Z,39.78
2019-02-20T13:10:04.529Z,36.35
2019-02-20T13:12:35.582Z,40.70
2019-02-20T13:15:12.000Z,50.40
2019-02-20T13:17:43.058Z,46.20
2019-02-20T13:20:15.171Z,47.38
2019-02-20T13:22:46.211Z,48.40
2019-02-20T13:25:17.295Z,43.15
2019-02-20T13:27:48.337Z,37.35
2019-02-20T13:30:19.421Z,39.40
2019-02-20T13:32:51.040Z,47.27
2019-02-20T13:35:22.222Z,35.75
2019-02-20T13:37:53.278Z,42.62
2019-02-20T13:40:24.359Z,38.58
2019-02-20T13:42:55.483Z,43.02
2019-02-20T13:45:26.637Z,39.65
2019-02-20T13:47:57.678Z,49.33
2019-02-20T13:50:29.047Z,35.68
2019-02-20T13:53:01.199Z,47.55
2019-02-20T13:55:34.540Z,38.98
2019-02-20T13:58:05.028Z,40.73
2019-02-20T14:00:36.281Z,41.58
2019-02-20T14:03:07.741Z,63.85
2019-02-20T14:05:38.869Z,39.90
2019-02-20T14:08:10.065Z,59.20
2019-02-20T14:10:41.119Z,63.70
2019-02-20T14:13:12.161Z,57.03
2019-02-20T14:15:45.614Z,54.38
2019-02-20T14:18:16.797Z,37.90
2019-02-20T14:20:47.890Z,34.80
2019-02-20T14:23:18.936Z,40.10
2019-02-20T14:25:49.991Z,37.90
2019-02-20T14:28:21.205Z,36.38
2019-02-20T14:30:52.260Z,41.60
2019-02-20T14:33:23.340Z,32.90
2019-02-20T14:35:54.391Z,34.63
2019-02-20T14:38:27.051Z,64.82
2019-02-20T14:40:58.198Z,35.33
2019-02-20T14:43:29.462Z,37.75
2019-02-20T14:46:00.540Z,37.98
2019-02-20T14:48:31.591Z,37.25
2019-02-20T14:51:02.733Z,36.80
2019-02-20T14:53:33.796Z,37.50
2019-02-20T14:56:05.357Z,43.35
2019-02-20T14:58:36.485Z,42.90
2019-02-20T15:01:07.773Z,42.45
2019-02-20T15:03:38.901Z,42.88
2019-02-20T15:06:10.073Z,44.08
2019-02-20T15:08:41.194Z,27.55
2019-02-20T15:11:12.273Z,40.30
2019-02-20T15:13:43.427Z,24.05
2019-02-20T15:16:14.526Z,25.88
2019-02-20T15:18:45.633Z,22.55
2019-02-20T15:21:16.771Z,32.70
2019-02-20T15:23:47.997Z,25.52
2019-02-20T15:26:19.071Z,28.83
2019-02-20T15:28:50.120Z,26.42
2019-02-20T15:31:21.453Z,31.27
2019-02-20T15:33:53.566Z,24.25
2019-02-20T15:36:24.882Z,33.73
2019-02-20T15:38:55.959Z,25.35
2019-02-20T15:41:27.111Z,32.40
2019-02-20T15:43:58.239Z,39.30
2019-02-20T15:46:29.393Z,41.02
2019-02-20T15:49:00.469Z,36.03
2019-02-20T15:51:31.522Z,55.30
2019-02-20T15:54:02.727Z,36.75
2019-02-20T15:56:33.819Z,34.70
2019-02-20T15:59:06.068Z,36.15
2019-02-20T16:01:37.189Z,37.28
2019-02-20T16:04:08.547Z,33.95
2019-02-20T16:06:39.664Z,34.73
2019-02-20T16:09:11.191Z,34.50
2019-02-20T16:11:43.046Z,37.45
2019-02-20T16:14:14.141Z,33.60
2019-02-20T16:16:45.668Z,31.62
2019-02-20T16:19:16.842Z,44.20
2019-02-20T16:21:47.957Z,35.58
2019-02-20T16:24:19.133Z,28.57
2019-02-20T16:26:50.204Z,40.08
2019-02-20T16:29:21.316Z,40.23
2019-02-20T16:31:52.385Z,28.10
2019-02-20T16:34:23.511Z,37.95
2019-02-20T16:36:54.581Z,37.80
2019-02-20T16:39:25.691Z,32.35
2019-02-20T16:41:56.805Z,29.55
2019-02-20T16:44:28.129Z,28.38
2019-02-20T16:46:59.199Z,38.65
2019-02-20T16:49:30.254Z,50.55
2019-02-20T16:52:01.400Z,35.48
2019-02-20T16:54:33.435Z,34.48
2019-02-20T16:57:04.503Z,30.72
2019-02-20T16:59:35.537Z,57.15
2019-02-20T17:02:06.704Z,32.93
2019-02-20T17:04:39.521Z,37.63
2019-02-20T17:07:10.659Z,40.98
2019-02-20T17:09:41.794Z,30.72
2019-02-20T17:12:12.833Z,34.15
2019-02-20T17:14:43.906Z,35.13
2019-02-20T17:17:15.051Z,39.42
2019-02-20T17:19:46.123Z,44.05
2019-02-20T17:22:17.230Z,35.85
2019-02-20T17:24:48.480Z,41.65
2019-02-20T17:27:19.602Z,46.15
2019-02-20T17:29:50.742Z,35.63
2019-02-20T17:32:21.858Z,33.13
2019-02-20T17:34:52.924Z,47.80
2019-02-20T17:37:24.376Z,39.65
2019-02-20T17:39:55.439Z,28.77
2019-02-20T17:42:26.550Z,36.23
2019-02-20T17:44:57.625Z,30.43
2019-02-20T17:47:28.692Z,38.00
2019-02-20T17:49:59.760Z,33.28
2019-02-20T17:52:30.797Z,36.80
2019-02-20T17:55:01.885Z,39.08
2019-02-20T17:57:33.597Z,41.45
2019-02-20T18:00:07.004Z,34.95
2019-02-20T18:02:38.515Z,32.90
2019-02-20T18:05:10.085Z,37.08
2019-02-20T18:07:48.843Z,33.78
2019-02-20T18:10:13.914Z,41.95
2019-02-20T18:12:45.004Z,45.33
2019-02-20T18:15:16.029Z,33.23
2019-02-20T18:17:47.135Z,37.35
2019-02-20T18:20:18.176Z,42.30
2019-02-20T18:22:49.244Z,40.38
2019-02-20T18:25:20.279Z,51.25
2019-02-20T18:27:51.359Z,49.85
2019-02-20T18:30:22.408Z,42.78
2019-02-20T18:32:53.580Z,40.00
2019-02-20T18:35:24.633Z,35.55
2019-02-20T18:37:55.775Z,59.35
2019-02-20T18:40:26.812Z,40.25
2019-02-20T18:42:58.761Z,49.70
2019-02-20T18:45:29.846Z,39.27
2019-02-20T18:48:00.921Z,37.15
2019-02-20T18:50:31.954Z,38.45
2019-02-20T18:53:03.019Z,34.63
2019-02-20T18:55:34.141Z,41.73
2019-02-20T18:58:05.213Z,43.10
2019-02-20T19:00:36.428Z,34.78
2019-02-20T19:03:07.646Z,43.23
2019-02-20T19:05:38.794Z,38.98
2019-02-20T19:08:41.439Z,36.73
2019-02-20T19:11:37.849Z,35.85
2019-02-20T19:14:19.223Z,43.73
2019-02-20T19:17:15.469Z,44.42
2019-02-20T19:20:03.013Z,48.15
2019-02-20T19:23:11.279Z,44.50
2019-02-20T19:26:15.264Z,46.58
2019-02-20T19:29:29.833Z,48.30
2019-02-20T19:32:26.214Z,45.30
2019-02-20T19:35:12.745Z,58.52
2019-02-20T19:38:11.529Z,56.90
2019-02-20T19:40:55.807Z,64.62
2019-02-20T19:43:33.962Z,85.30
2019-02-20T19:46:40.139Z,60.67
2019-02-20T19:49:18.410Z,61.73
2019-02-20T19:52:20.998Z,69.80
2019-02-20T19:55:15.688Z,55.43
2019-02-20T19:58:00.093Z,56.00
2019-02-20T20:00:47.529Z,58.63
2019-02-20T20:03:32.203Z,59.88
2019-02-20T20:06:32.531Z,51.30
2019-02-20T20:09:19.696Z,44.83
2019-02-20T20:12:25.271Z,41.33
2019-02-20T20:15:15.794Z,46.15
2019-02-20T20:18:20.949Z,46.20
2019-02-20T20:21:30.947Z,57.40
2019-02-20T20:24:34.621Z,55.88
2019-02-20T20:27:20.546Z,51.30
2019-02-20T20:30:15.261Z,42.88
2019-02-20T20:33:02.677Z,46.95
2019-02-20T20:35:41.131Z,52.43
2019-02-20T20:38:19.487Z,49.18
2019-02-20T20:41:37.934Z,40.95
2019-02-20T20:44:40.392Z,42.23
2019-02-20T20:47:21.465Z,47.17
2019-02-20T20:49:59.573Z,46.98
2019-02-20T20:53:20.644Z,38.35
2019-02-20T20:56:08.549Z,38.25
2019-02-20T20:58:55.600Z,37.98
2019-02-20T21:01:46.406Z,45.78
2019-02-20T21:04:53.194Z,37.08
2019-02-20T21:07:34.395Z,33.08
2019-02-20T21:10:15.484Z,46.90
2019-02-20T21:13:23.691Z,36.23
2019-02-20T21:16:18.556Z,31.25
2019-02-20T21:19:28.405Z,35.75
2019-02-20T21:22:03.956Z,33.15
2019-02-20T21:24:48.339Z,34.43
2019-02-20T21:27:26.812Z,35.03
2019-02-20T21:30:26.214Z,39.75
2019-02-20T21:33:52.461Z,33.38
2019-02-20T21:36:29.301Z,29.80
2019-02-20T21:39:23.989Z,30.77
2019-02-20T21:42:02.085Z,27.05
2019-02-20T21:44:47.343Z,27.40
2019-02-20T21:47:40.539Z,29.72
2019-02-20T21:50:18.850Z,33.50
2019-02-20T21:53:10.296Z,32.93
2019-02-20T21:56:14.228Z,30.30
2019-02-20T21:59:18.527Z,27.22
2019-02-20T22:02:02.928Z,36.85
2019-02-20T22:05:05.329Z,38.78
2019-02-20T22:08:04.527Z,24.45
2019-02-20T22:11:15.741Z,27.95
2019-02-20T22:14:22.070Z,37.48
2019-02-20T22:17:15.612Z,58.25
2019-02-20T22:20:09.215Z,70.20
2019-02-20T22:22:44.758Z,52.30
2019-02-20T22:25:47.098Z,42.20
2019-02-20T22:28:43.582Z,41.05
2019-02-20T22:31:42.550Z,37.03
2019-02-20T22:34:32.541Z,32.40
2019-02-20T22:37:37.984Z,33.60
2019-02-20T22:40:21.993Z,30.95
2019-02-20T22:43:36.095Z,31.68
2019-02-20T22:46:20.276Z,30.82
2019-02-20T22:49:22.745Z,41.45
2019-02-20T22:52:15.756Z,33.83
2019-02-20T22:55:10.291Z,42.67
2019-02-20T22:57:54.564Z,30.17
2019-02-20T23:01:07.581Z,28.00
2019-02-20T23:03:47.625Z,40.12
2019-02-20T23:06:40.682Z,30.17
2019-02-20T23:09:36.857Z,31.37
2019-02-20T23:12:12.439Z,35.15
2019-02-20T23:14:58.758Z,33.85
2019-02-20T23:17:30.180Z,34.05
2019-02-20T23:20:01.243Z,34.55
2019-02-20T23:22:32.522Z,33.67
2019-02-20T23:25:03.563Z,32.58
2019-02-20T23:27:34.634Z,36.15
2019-02-20T23:30:13.106Z,32.23
2019-02-20T23:32:44.422Z,32.15
2019-02-20T23:35:15.500Z,38.63
2019-02-20T23:37:46.499Z,36.95
2019-02-20T23:40:17.570Z,32.45
2019-02-20T23:42:49.202Z,32.25
2019-02-20T23:45:20.391Z,36.20
2019-02-20T23:47:51.435Z,30.68
2019-02-20T23:50:22.523Z,31.10
2019-02-20T23:52:53.674Z,34.85
2019-02-20T23:55:24.679Z,37.45
2019-02-20T23:57:55.738Z,28.85
